sensor_id;sensor_type;location;lat;lon;timestamp;P1;durP1;ratioP1;P2;durP2;ratioP2
6947;SDS011;3513;47.664;9.162;2023-02-28T00:01:00;11.27;;;7.77;;
6947;SDS011;3513;47.664;9.162;2023-02-28T00:03:25;11.53;;;8.30;;
6947;SDS011;3513;47.664;9.162;2023-02-28T00:05:51;11.03;;;8.00;;
6947;SDS011;3513;47.664;9.162;2023-02-28T00:08:16;11.53;;;7.50;;
6947;SDS011;3513;47.664;9.162;2023-02-28T00:10:42;11.70;;;8.10;;
6947;SDS011;3513;47.664;9.162;2023-02-28T00:13:07;11.87;;;8.23;;
6947;SDS011;3513;47.664;9.162;2023-02-28T00:15:33;11.17;;;7.97;;
6947;SDS011;3513;47.664;9.162;2023-02-28T00:17:59;12.70;;;7.63;;
6947;SDS011;3513;47.664;9.162;2023-02-28T00:20:25;11.90;;;8.07;;
6947;SDS011;3513;47.664;9.162;2023-02-28T00:22:52;12.88;;;8.30;;
6947;SDS011;3513;47.664;9.162;2023-02-28T00:25:19;13.57;;;8.13;;
6947;SDS011;3513;47.664;9.162;2023-02-28T00:27:47;13.70;;;8.07;;
6947;SDS011;3513;47.664;9.162;2023-02-28T00:30:14;14.63;;;8.68;;
6947;SDS011;3513;47.664;9.162;2023-02-28T00:32:41;14.95;;;7.45;;
6947;SDS011;3513;47.664;9.162;2023-02-28T00:35:07;10.13;;;8.17;;
6947;SDS011;3513;47.664;9.162;2023-02-28T00:37:33;13.32;;;8.70;;
6947;SDS011;3513;47.664;9.162;2023-02-28T00:39:59;13.15;;;8.23;;
6947;SDS011;3513;47.664;9.162;2023-02-28T00:42:25;9.70;;;7.67;;
6947;SDS011;3513;47.664;9.162;2023-02-28T00:44:52;10.68;;;7.85;;
6947;SDS011;3513;47.664;9.162;2023-02-28T00:47:17;11.40;;;8.30;;
6947;SDS011;3513;47.664;9.162;2023-02-28T00:49:43;7.67;;;6.70;;
6947;SDS011;3513;47.664;9.162;2023-02-28T00:52:09;13.00;;;8.00;;
6947;SDS011;3513;47.664;9.162;2023-02-28T00:54:35;12.52;;;7.90;;
6947;SDS011;3513;47.664;9.162;2023-02-28T00:57:00;11.93;;;8.53;;
6947;SDS011;3513;47.664;9.162;2023-02-28T00:59:26;17.27;;;7.93;;
6947;SDS011;3513;47.664;9.162;2023-02-28T01:01:51;12.30;;;7.10;;
6947;SDS011;3513;47.664;9.162;2023-02-28T01:04:17;16.27;;;7.80;;
6947;SDS011;3513;47.664;9.162;2023-02-28T01:06:43;9.10;;;7.33;;
6947;SDS011;3513;47.664;9.162;2023-02-28T01:09:08;15.20;;;7.70;;
6947;SDS011;3513;47.664;9.162;2023-02-28T01:11:34;24.38;;;7.82;;
6947;SDS011;3513;47.664;9.162;2023-02-28T01:14:00;13.07;;;8.25;;
6947;SDS011;3513;47.664;9.162;2023-02-28T01:16:27;10.70;;;7.75;;
6947;SDS011;3513;47.664;9.162;2023-02-28T01:18:53;10.47;;;7.30;;
6947;SDS011;3513;47.664;9.162;2023-02-28T01:21:19;11.00;;;7.57;;
6947;SDS011;3513;47.664;9.162;2023-02-28T01:23:46;13.50;;;7.80;;
6947;SDS011;3513;47.664;9.162;2023-02-28T01:26:17;14.25;;;7.70;;
6947;SDS011;3513;47.664;9.162;2023-02-28T01:28:44;9.82;;;7.35;;
6947;SDS011;3513;47.664;9.162;2023-02-28T01:31:10;9.55;;;7.35;;
6947;SDS011;3513;47.664;9.162;2023-02-28T01:33:37;11.68;;;7.18;;
6947;SDS011;3513;47.664;9.162;2023-02-28T01:36:07;8.75;;;7.82;;
6947;SDS011;3513;47.664;9.162;2023-02-28T01:38:37;13.93;;;7.45;;
6947;SDS011;3513;47.664;9.162;2023-02-28T01:41:04;11.13;;;7.68;;
6947;SDS011;3513;47.664;9.162;2023-02-28T01:43:31;10.35;;;7.20;;
6947;SDS011;3513;47.664;9.162;2023-02-28T01:46:18;10.95;;;6.75;;
6947;SDS011;3513;47.664;9.162;2023-02-28T01:48:54;11.20;;;6.97;;
6947;SDS011;3513;47.664;9.162;2023-02-28T01:51:39;12.07;;;7.93;;
6947;SDS011;3513;47.664;9.162;2023-02-28T01:54:10;9.65;;;6.25;;
6947;SDS011;3513;47.664;9.162;2023-02-28T01:56:42;13.68;;;7.22;;
6947;SDS011;3513;47.664;9.162;2023-02-28T01:59:13;11.35;;;7.90;;
6947;SDS011;3513;47.664;9.162;2023-02-28T02:01:44;8.88;;;6.70;;
6947;SDS011;3513;47.664;9.162;2023-02-28T02:04:11;10.50;;;7.10;;
6947;SDS011;3513;47.664;9.162;2023-02-28T02:06:38;9.37;;;7.40;;
6947;SDS011;3513;47.664;9.162;2023-02-28T02:09:07;8.60;;;6.55;;
6947;SDS011;3513;47.664;9.162;2023-02-28T02:11:33;11.87;;;6.40;;
6947;SDS011;3513;47.664;9.162;2023-02-28T02:14:05;9.40;;;7.28;;
6947;SDS011;3513;47.664;9.162;2023-02-28T02:30:48;8.85;;;6.90;;
6947;SDS011;3513;47.664;9.162;2023-02-28T02:33:44;8.80;;;7.43;;
6947;SDS011;3513;47.664;9.162;2023-02-28T02:36:35;14.57;;;7.72;;
6947;SDS011;3513;47.664;9.162;2023-02-28T02:39:13;7.88;;;6.82;;
6947;SDS011;3513;47.664;9.162;2023-02-28T02:41:59;10.55;;;7.03;;
6947;SDS011;3513;47.664;9.162;2023-02-28T02:44:36;7.40;;;6.13;;
6947;SDS011;3513;47.664;9.162;2023-02-28T02:47:14;9.45;;;6.95;;
6947;SDS011;3513;47.664;9.162;2023-02-28T02:49:44;8.60;;;6.25;;
6947;SDS011;3513;47.664;9.162;2023-02-28T02:52:14;9.40;;;6.70;;
6947;SDS011;3513;47.664;9.162;2023-02-28T02:54:44;11.50;;;6.75;;
6947;SDS011;3513;47.664;9.162;2023-02-28T02:57:16;9.35;;;6.20;;
6947;SDS011;3513;47.664;9.162;2023-02-28T02:59:49;8.60;;;6.95;;
6947;SDS011;3513;47.664;9.162;2023-02-28T03:02:18;8.57;;;6.72;;
6947;SDS011;3513;47.664;9.162;2023-02-28T03:04:53;9.18;;;6.93;;
6947;SDS011;3513;47.664;9.162;2023-02-28T03:07:27;9.23;;;6.97;;
6947;SDS011;3513;47.664;9.162;2023-02-28T03:09:54;11.50;;;7.63;;
6947;SDS011;3513;47.664;9.162;2023-02-28T03:12:21;10.65;;;7.35;;
6947;SDS011;3513;47.664;9.162;2023-02-28T03:14:56;14.75;;;6.72;;
6947;SDS011;3513;47.664;9.162;2023-02-28T03:20:19;10.38;;;6.85;;
6947;SDS011;3513;47.664;9.162;2023-02-28T03:23:01;9.93;;;6.15;;
6947;SDS011;3513;47.664;9.162;2023-02-28T03:28:27;9.25;;;6.40;;
6947;SDS011;3513;47.664;9.162;2023-02-28T03:31:19;11.95;;;6.72;;
6947;SDS011;3513;47.664;9.162;2023-02-28T03:33:53;9.95;;;6.07;;
6947;SDS011;3513;47.664;9.162;2023-02-28T03:36:27;9.85;;;6.22;;
6947;SDS011;3513;47.664;9.162;2023-02-28T03:39:07;8.77;;;6.25;;
6947;SDS011;3513;47.664;9.162;2023-02-28T03:44:09;7.80;;;6.50;;
6947;SDS011;3513;47.664;9.162;2023-02-28T03:46:41;8.82;;;6.28;;
6947;SDS011;3513;47.664;9.162;2023-02-28T03:49:18;8.05;;;6.80;;
6947;SDS011;3513;47.664;9.162;2023-02-28T03:51:47;7.00;;;5.97;;
6947;SDS011;3513;47.664;9.162;2023-02-28T03:54:17;6.18;;;5.57;;
6947;SDS011;3513;47.664;9.162;2023-02-28T03:59:44;7.82;;;5.80;;
6947;SDS011;3513;47.664;9.162;2023-02-28T04:02:13;9.90;;;7.05;;
6947;SDS011;3513;47.664;9.162;2023-02-28T04:04:39;9.63;;;6.20;;
6947;SDS011;3513;47.664;9.162;2023-02-28T04:07:10;6.82;;;5.88;;
6947;SDS011;3513;47.664;9.162;2023-02-28T04:09:36;9.20;;;5.97;;
6947;SDS011;3513;47.664;9.162;2023-02-28T04:12:02;9.77;;;6.22;;
6947;SDS011;3513;47.664;9.162;2023-02-28T04:14:28;10.37;;;7.03;;
6947;SDS011;3513;47.664;9.162;2023-02-28T04:16:54;10.20;;;6.53;;
6947;SDS011;3513;47.664;9.162;2023-02-28T04:19:20;11.10;;;7.20;;
6947;SDS011;3513;47.664;9.162;2023-02-28T04:21:46;13.83;;;6.73;;
6947;SDS011;3513;47.664;9.162;2023-02-28T04:24:14;10.55;;;6.93;;
6947;SDS011;3513;47.664;9.162;2023-02-28T04:26:43;9.10;;;6.68;;
6947;SDS011;3513;47.664;9.162;2023-02-28T04:29:14;13.63;;;6.97;;
6947;SDS011;3513;47.664;9.162;2023-02-28T04:32:03;9.52;;;6.50;;
6947;SDS011;3513;47.664;9.162;2023-02-28T04:34:29;11.02;;;6.68;;
6947;SDS011;3513;47.664;9.162;2023-02-28T04:36:56;14.93;;;7.85;;
6947;SDS011;3513;47.664;9.162;2023-02-28T04:39:23;16.97;;;7.77;;
6947;SDS011;3513;47.664;9.162;2023-02-28T04:41:49;9.85;;;7.05;;
6947;SDS011;3513;47.664;9.162;2023-02-28T04:44:15;9.00;;;7.30;;
6947;SDS011;3513;47.664;9.162;2023-02-28T04:46:41;15.83;;;7.60;;
6947;SDS011;3513;47.664;9.162;2023-02-28T04:49:08;8.55;;;7.20;;
6947;SDS011;3513;47.664;9.162;2023-02-28T04:51:37;11.55;;;7.05;;
6947;SDS011;3513;47.664;9.162;2023-02-28T04:54:03;11.30;;;7.90;;
6947;SDS011;3513;47.664;9.162;2023-02-28T04:56:29;13.53;;;7.90;;
6947;SDS011;3513;47.664;9.162;2023-02-28T04:58:54;13.40;;;7.43;;
6947;SDS011;3513;47.664;9.162;2023-02-28T05:03:54;11.45;;;7.75;;
6947;SDS011;3513;47.664;9.162;2023-02-28T05:06:21;9.52;;;6.95;;
6947;SDS011;3513;47.664;9.162;2023-02-28T05:08:48;9.80;;;6.88;;
6947;SDS011;3513;47.664;9.162;2023-02-28T05:11:25;12.03;;;8.30;;
6947;SDS011;3513;47.664;9.162;2023-02-28T05:13:59;19.33;;;7.40;;
6947;SDS011;3513;47.664;9.162;2023-02-28T05:16:26;12.90;;;8.38;;
6947;SDS011;3513;47.664;9.162;2023-02-28T05:18:51;9.67;;;7.70;;
6947;SDS011;3513;47.664;9.162;2023-02-28T05:21:29;9.48;;;7.97;;
6947;SDS011;3513;47.664;9.162;2023-02-28T05:23:58;10.63;;;7.18;;
6947;SDS011;3513;47.664;9.162;2023-02-28T05:26:26;12.52;;;9.30;;
6947;SDS011;3513;47.664;9.162;2023-02-28T05:28:53;13.85;;;8.60;;
6947;SDS011;3513;47.664;9.162;2023-02-28T05:31:18;10.27;;;8.10;;
6947;SDS011;3513;47.664;9.162;2023-02-28T05:33:44;10.57;;;8.30;;
6947;SDS011;3513;47.664;9.162;2023-02-28T05:36:10;17.67;;;8.00;;
6947;SDS011;3513;47.664;9.162;2023-02-28T05:38:35;10.77;;;7.20;;
6947;SDS011;3513;47.664;9.162;2023-02-28T05:41:04;15.33;;;8.80;;
6947;SDS011;3513;47.664;9.162;2023-02-28T05:43:31;12.18;;;8.50;;
6947;SDS011;3513;47.664;9.162;2023-02-28T05:45:56;14.73;;;8.83;;
6947;SDS011;3513;47.664;9.162;2023-02-28T05:48:22;10.83;;;8.33;;
6947;SDS011;3513;47.664;9.162;2023-02-28T05:50:47;10.37;;;7.33;;
6947;SDS011;3513;47.664;9.162;2023-02-28T05:53:13;17.80;;;11.07;;
6947;SDS011;3513;47.664;9.162;2023-02-28T05:55:38;13.43;;;9.80;;
6947;SDS011;3513;47.664;9.162;2023-02-28T05:58:06;12.20;;;9.18;;
6947;SDS011;3513;47.664;9.162;2023-02-28T06:00:31;33.40;;;19.63;;
6947;SDS011;3513;47.664;9.162;2023-02-28T06:02:57;14.80;;;10.30;;
6947;SDS011;3513;47.664;9.162;2023-02-28T06:05:26;16.63;;;9.52;;
6947;SDS011;3513;47.664;9.162;2023-02-28T06:07:52;12.45;;;9.73;;
6947;SDS011;3513;47.664;9.162;2023-02-28T06:10:18;15.43;;;9.30;;
6947;SDS011;3513;47.664;9.162;2023-02-28T06:12:44;11.73;;;9.30;;
6947;SDS011;3513;47.664;9.162;2023-02-28T06:15:14;14.60;;;9.63;;
6947;SDS011;3513;47.664;9.162;2023-02-28T06:17:42;10.13;;;8.25;;
6947;SDS011;3513;47.664;9.162;2023-02-28T06:20:08;17.15;;;10.40;;
6947;SDS011;3513;47.664;9.162;2023-02-28T06:22:36;12.15;;;8.38;;
6947;SDS011;3513;47.664;9.162;2023-02-28T06:25:02;12.40;;;9.52;;
6947;SDS011;3513;47.664;9.162;2023-02-28T06:27:28;12.63;;;10.07;;
6947;SDS011;3513;47.664;9.162;2023-02-28T06:29:56;20.98;;;11.95;;
6947;SDS011;3513;47.664;9.162;2023-02-28T06:32:22;12.53;;;8.97;;
6947;SDS011;3513;47.664;9.162;2023-02-28T06:34:47;14.07;;;9.57;;
6947;SDS011;3513;47.664;9.162;2023-02-28T06:37:13;17.27;;;9.25;;
6947;SDS011;3513;47.664;9.162;2023-02-28T06:39:39;18.60;;;9.73;;
6947;SDS011;3513;47.664;9.162;2023-02-28T06:42:05;13.13;;;9.87;;
6947;SDS011;3513;47.664;9.162;2023-02-28T06:44:30;15.63;;;9.30;;
6947;SDS011;3513;47.664;9.162;2023-02-28T06:47:00;12.30;;;8.55;;
6947;SDS011;3513;47.664;9.162;2023-02-28T06:49:28;14.35;;;9.18;;
6947;SDS011;3513;47.664;9.162;2023-02-28T06:51:54;16.23;;;9.95;;
6947;SDS011;3513;47.664;9.162;2023-02-28T06:54:20;13.60;;;9.27;;
6947;SDS011;3513;47.664;9.162;2023-02-28T06:56:46;13.40;;;9.93;;
6947;SDS011;3513;47.664;9.162;2023-02-28T06:59:12;13.50;;;9.07;;
6947;SDS011;3513;47.664;9.162;2023-02-28T07:01:38;16.13;;;9.27;;
6947;SDS011;3513;47.664;9.162;2023-02-28T07:04:05;12.00;;;7.95;;
6947;SDS011;3513;47.664;9.162;2023-02-28T07:06:31;16.98;;;9.65;;
6947;SDS011;3513;47.664;9.162;2023-02-28T07:08:56;12.13;;;9.27;;
6947;SDS011;3513;47.664;9.162;2023-02-28T07:11:23;12.50;;;8.97;;
6947;SDS011;3513;47.664;9.162;2023-02-28T07:13:53;13.60;;;10.07;;
6947;SDS011;3513;47.664;9.162;2023-02-28T07:16:19;13.63;;;10.32;;
6947;SDS011;3513;47.664;9.162;2023-02-28T07:18:46;12.63;;;9.25;;
6947;SDS011;3513;47.664;9.162;2023-02-28T07:21:11;16.33;;;9.27;;
6947;SDS011;3513;47.664;9.162;2023-02-28T07:23:39;18.70;;;9.60;;
6947;SDS011;3513;47.664;9.162;2023-02-28T07:26:06;21.33;;;9.85;;
6947;SDS011;3513;47.664;9.162;2023-02-28T07:28:32;20.10;;;10.43;;
6947;SDS011;3513;47.664;9.162;2023-02-28T07:31:04;19.67;;;10.23;;
6947;SDS011;3513;47.664;9.162;2023-02-28T07:33:31;16.40;;;10.27;;
6947;SDS011;3513;47.664;9.162;2023-02-28T07:36:00;17.57;;;11.10;;
6947;SDS011;3513;47.664;9.162;2023-02-28T07:38:30;13.68;;;10.02;;
6947;SDS011;3513;47.664;9.162;2023-02-28T07:40:58;12.23;;;9.30;;
6947;SDS011;3513;47.664;9.162;2023-02-28T07:43:24;14.43;;;9.50;;
6947;SDS011;3513;47.664;9.162;2023-02-28T07:45:49;13.80;;;10.07;;
6947;SDS011;3513;47.664;9.162;2023-02-28T07:48:15;14.23;;;9.93;;
6947;SDS011;3513;47.664;9.162;2023-02-28T07:50:41;19.33;;;10.40;;
6947;SDS011;3513;47.664;9.162;2023-02-28T07:53:06;17.37;;;9.80;;
6947;SDS011;3513;47.664;9.162;2023-02-28T07:55:32;15.83;;;10.43;;
6947;SDS011;3513;47.664;9.162;2023-02-28T07:57:58;16.27;;;9.70;;
6947;SDS011;3513;47.664;9.162;2023-02-28T08:00:23;13.17;;;9.83;;
6947;SDS011;3513;47.664;9.162;2023-02-28T08:02:49;18.50;;;10.40;;
6947;SDS011;3513;47.664;9.162;2023-02-28T08:05:15;13.77;;;8.67;;
6947;SDS011;3513;47.664;9.162;2023-02-28T08:07:41;14.93;;;11.10;;
6947;SDS011;3513;47.664;9.162;2023-02-28T08:10:07;15.97;;;11.10;;
6947;SDS011;3513;47.664;9.162;2023-02-28T08:12:34;19.35;;;11.57;;
6947;SDS011;3513;47.664;9.162;2023-02-28T08:15:00;16.03;;;10.20;;
6947;SDS011;3513;47.664;9.162;2023-02-28T08:17:26;18.13;;;10.83;;
6947;SDS011;3513;47.664;9.162;2023-02-28T08:19:52;16.88;;;10.73;;
6947;SDS011;3513;47.664;9.162;2023-02-28T08:22:17;16.23;;;10.77;;
6947;SDS011;3513;47.664;9.162;2023-02-28T08:24:43;14.47;;;10.20;;
6947;SDS011;3513;47.664;9.162;2023-02-28T08:27:09;17.67;;;11.00;;
6947;SDS011;3513;47.664;9.162;2023-02-28T08:29:38;14.50;;;9.73;;
6947;SDS011;3513;47.664;9.162;2023-02-28T08:32:04;17.13;;;10.77;;
6947;SDS011;3513;47.664;9.162;2023-02-28T08:34:31;27.13;;;10.53;;
6947;SDS011;3513;47.664;9.162;2023-02-28T08:36:57;15.20;;;10.77;;
6947;SDS011;3513;47.664;9.162;2023-02-28T08:39:22;17.63;;;10.40;;
6947;SDS011;3513;47.664;9.162;2023-02-28T08:41:48;18.43;;;10.93;;
6947;SDS011;3513;47.664;9.162;2023-02-28T08:44:14;20.07;;;10.40;;
6947;SDS011;3513;47.664;9.162;2023-02-28T08:46:39;15.10;;;10.47;;
6947;SDS011;3513;47.664;9.162;2023-02-28T08:49:05;14.10;;;9.70;;
6947;SDS011;3513;47.664;9.162;2023-02-28T08:51:31;17.10;;;9.80;;
6947;SDS011;3513;47.664;9.162;2023-02-28T08:53:58;17.97;;;11.30;;
6947;SDS011;3513;47.664;9.162;2023-02-28T08:56:25;18.38;;;12.02;;
6947;SDS011;3513;47.664;9.162;2023-02-28T08:58:53;20.23;;;10.20;;
6947;SDS011;3513;47.664;9.162;2023-02-28T09:01:21;15.90;;;10.13;;
6947;SDS011;3513;47.664;9.162;2023-02-28T09:03:49;13.38;;;9.38;;
6947;SDS011;3513;47.664;9.162;2023-02-28T09:06:16;18.00;;;10.15;;
6947;SDS011;3513;47.664;9.162;2023-02-28T09:08:43;19.87;;;9.73;;
6947;SDS011;3513;47.664;9.162;2023-02-28T09:11:11;17.25;;;10.02;;
6947;SDS011;3513;47.664;9.162;2023-02-28T09:13:38;14.32;;;10.85;;
6947;SDS011;3513;47.664;9.162;2023-02-28T09:16:04;14.20;;;9.60;;
6947;SDS011;3513;47.664;9.162;2023-02-28T09:18:33;12.88;;;10.10;;
6947;SDS011;3513;47.664;9.162;2023-02-28T09:21:02;15.70;;;11.23;;
6947;SDS011;3513;47.664;9.162;2023-02-28T09:23:32;14.93;;;9.88;;
6947;SDS011;3513;47.664;9.162;2023-02-28T09:25:58;16.50;;;9.43;;
6947;SDS011;3513;47.664;9.162;2023-02-28T09:28:23;16.67;;;10.60;;
6947;SDS011;3513;47.664;9.162;2023-02-28T09:30:50;13.43;;;10.30;;
6947;SDS011;3513;47.664;9.162;2023-02-28T09:33:17;15.13;;;9.70;;
6947;SDS011;3513;47.664;9.162;2023-02-28T09:35:46;18.77;;;11.07;;
6947;SDS011;3513;47.664;9.162;2023-02-28T09:38:12;14.40;;;10.27;;
6947;SDS011;3513;47.664;9.162;2023-02-28T09:40:51;13.83;;;10.00;;
6947;SDS011;3513;47.664;9.162;2023-02-28T09:43:21;21.30;;;11.03;;
6947;SDS011;3513;47.664;9.162;2023-02-28T09:45:56;19.37;;;11.47;;
6947;SDS011;3513;47.664;9.162;2023-02-28T09:48:37;26.60;;;11.33;;
6947;SDS011;3513;47.664;9.162;2023-02-28T09:53:48;17.50;;;10.65;;
6947;SDS011;3513;47.664;9.162;2023-02-28T10:02:01;14.27;;;10.50;;
6947;SDS011;3513;47.664;9.162;2023-02-28T10:04:59;17.43;;;10.40;;
6947;SDS011;3513;47.664;9.162;2023-02-28T10:10:17;15.60;;;10.30;;
6947;SDS011;3513;47.664;9.162;2023-02-28T10:12:49;13.20;;;10.57;;
6947;SDS011;3513;47.664;9.162;2023-02-28T10:15:19;16.38;;;10.68;;
6947;SDS011;3513;47.664;9.162;2023-02-28T10:17:48;15.40;;;11.00;;
6947;SDS011;3513;47.664;9.162;2023-02-28T10:20:20;13.93;;;10.73;;
6947;SDS011;3513;47.664;9.162;2023-02-28T10:25:46;16.60;;;11.20;;
6947;SDS011;3513;47.664;9.162;2023-02-28T10:28:17;17.30;;;11.87;;
6947;SDS011;3513;47.664;9.162;2023-02-28T10:30:47;19.83;;;10.27;;
6947;SDS011;3513;47.664;9.162;2023-02-28T10:33:25;16.67;;;10.63;;
6947;SDS011;3513;47.664;9.162;2023-02-28T10:36:10;16.63;;;11.57;;
6947;SDS011;3513;47.664;9.162;2023-02-28T10:38:43;23.13;;;12.67;;
6947;SDS011;3513;47.664;9.162;2023-02-28T10:41:11;13.43;;;9.77;;
6947;SDS011;3513;47.664;9.162;2023-02-28T10:43:43;23.67;;;14.03;;
6947;SDS011;3513;47.664;9.162;2023-02-28T10:48:50;18.00;;;10.60;;
6947;SDS011;3513;47.664;9.162;2023-02-28T10:51:25;18.23;;;11.50;;
6947;SDS011;3513;47.664;9.162;2023-02-28T10:54:03;17.80;;;11.43;;
6947;SDS011;3513;47.664;9.162;2023-02-28T10:56:30;20.30;;;12.40;;
6947;SDS011;3513;47.664;9.162;2023-02-28T10:59:03;33.97;;;16.30;;
6947;SDS011;3513;47.664;9.162;2023-02-28T11:01:47;16.83;;;11.73;;
6947;SDS011;3513;47.664;9.162;2023-02-28T11:06:44;19.57;;;12.10;;
6947;SDS011;3513;47.664;9.162;2023-02-28T11:09:29;24.80;;;14.70;;
6947;SDS011;3513;47.664;9.162;2023-02-28T11:11:58;19.43;;;11.70;;
6947;SDS011;3513;47.664;9.162;2023-02-28T11:14:28;18.13;;;12.03;;
6947;SDS011;3513;47.664;9.162;2023-02-28T11:17:11;17.27;;;10.90;;
6947;SDS011;3513;47.664;9.162;2023-02-28T11:19:45;18.30;;;11.47;;
6947;SDS011;3513;47.664;9.162;2023-02-28T11:22:17;19.10;;;11.17;;
6947;SDS011;3513;47.664;9.162;2023-02-28T11:24:50;27.73;;;16.50;;
6947;SDS011;3513;47.664;9.162;2023-02-28T11:29:56;23.90;;;13.10;;
6947;SDS011;3513;47.664;9.162;2023-02-28T11:32:24;20.43;;;13.10;;
6947;SDS011;3513;47.664;9.162;2023-02-28T11:35:02;25.80;;;11.53;;
6947;SDS011;3513;47.664;9.162;2023-02-28T11:37:37;21.87;;;12.03;;
6947;SDS011;3513;47.664;9.162;2023-02-28T11:40:05;21.10;;;12.40;;
6947;SDS011;3513;47.664;9.162;2023-02-28T11:48:17;19.83;;;13.07;;
6947;SDS011;3513;47.664;9.162;2023-02-28T11:53:39;19.70;;;14.13;;
6947;SDS011;3513;47.664;9.162;2023-02-28T11:59:22;20.60;;;12.80;;
6947;SDS011;3513;47.664;9.162;2023-02-28T12:02:28;17.63;;;11.70;;
6947;SDS011;3513;47.664;9.162;2023-02-28T12:07:59;19.40;;;12.40;;
6947;SDS011;3513;47.664;9.162;2023-02-28T12:13:37;15.80;;;11.10;;
6947;SDS011;3513;47.664;9.162;2023-02-28T12:18:53;25.80;;;15.80;;
6947;SDS011;3513;47.664;9.162;2023-02-28T12:26:51;26.60;;;18.57;;
6947;SDS011;3513;47.664;9.162;2023-02-28T12:29:23;19.83;;;13.27;;
6947;SDS011;3513;47.664;9.162;2023-02-28T12:31:59;24.83;;;14.20;;
6947;SDS011;3513;47.664;9.162;2023-02-28T12:34:47;27.03;;;15.60;;
6947;SDS011;3513;47.664;9.162;2023-02-28T12:37:32;24.90;;;15.63;;
6947;SDS011;3513;47.664;9.162;2023-02-28T12:40:05;20.37;;;14.70;;
6947;SDS011;3513;47.664;9.162;2023-02-28T12:42:38;25.00;;;15.30;;
6947;SDS011;3513;47.664;9.162;2023-02-28T12:45:16;22.60;;;14.70;;
6947;SDS011;3513;47.664;9.162;2023-02-28T12:47:46;20.97;;;15.17;;
6947;SDS011;3513;47.664;9.162;2023-02-28T12:50:17;27.30;;;15.00;;
6947;SDS011;3513;47.664;9.162;2023-02-28T12:58:39;25.73;;;15.13;;
6947;SDS011;3513;47.664;9.162;2023-02-28T13:04:08;24.20;;;16.03;;
6947;SDS011;3513;47.664;9.162;2023-02-28T13:09:59;21.23;;;13.90;;
6947;SDS011;3513;47.664;9.162;2023-02-28T13:12:27;26.63;;;15.30;;
6947;SDS011;3513;47.664;9.162;2023-02-28T13:15:04;22.53;;;14.80;;
6947;SDS011;3513;47.664;9.162;2023-02-28T13:17:47;21.30;;;14.90;;
6947;SDS011;3513;47.664;9.162;2023-02-28T13:20:15;53.57;;;16.63;;
6947;SDS011;3513;47.664;9.162;2023-02-28T13:22:47;23.83;;;14.73;;
6947;SDS011;3513;47.664;9.162;2023-02-28T13:27:58;22.57;;;14.53;;
6947;SDS011;3513;47.664;9.162;2023-02-28T13:33:20;24.20;;;15.93;;
6947;SDS011;3513;47.664;9.162;2023-02-28T13:36:00;20.27;;;15.10;;
6947;SDS011;3513;47.664;9.162;2023-02-28T13:38:36;23.10;;;14.23;;
6947;SDS011;3513;47.664;9.162;2023-02-28T13:46:34;25.13;;;15.37;;
6947;SDS011;3513;47.664;9.162;2023-02-28T14:05:47;26.20;;;16.60;;
6947;SDS011;3513;47.664;9.162;2023-02-28T14:08:35;30.67;;;16.43;;
6947;SDS011;3513;47.664;9.162;2023-02-28T14:11:05;24.23;;;15.80;;
6947;SDS011;3513;47.664;9.162;2023-02-28T14:13:44;23.83;;;16.17;;
6947;SDS011;3513;47.664;9.162;2023-02-28T14:16:16;28.10;;;15.67;;
6947;SDS011;3513;47.664;9.162;2023-02-28T14:18:55;30.17;;;17.50;;
6947;SDS011;3513;47.664;9.162;2023-02-28T14:21:31;25.93;;;16.23;;
6947;SDS011;3513;47.664;9.162;2023-02-28T14:37:51;27.33;;;17.80;;
6947;SDS011;3513;47.664;9.162;2023-02-28T14:40:32;34.63;;;18.63;;
6947;SDS011;3513;47.664;9.162;2023-02-28T14:43:00;24.93;;;16.20;;
6947;SDS011;3513;47.664;9.162;2023-02-28T14:45:34;28.00;;;17.70;;
6947;SDS011;3513;47.664;9.162;2023-02-28T14:48:02;24.73;;;17.53;;
6947;SDS011;3513;47.664;9.162;2023-02-28T14:50:34;32.50;;;17.67;;
6947;SDS011;3513;47.664;9.162;2023-02-28T14:53:02;31.73;;;18.10;;
6947;SDS011;3513;47.664;9.162;2023-02-28T14:55:29;29.37;;;16.43;;
6947;SDS011;3513;47.664;9.162;2023-02-28T14:57:57;32.43;;;16.90;;
6947;SDS011;3513;47.664;9.162;2023-02-28T15:00:25;28.03;;;19.10;;
6947;SDS011;3513;47.664;9.162;2023-02-28T15:02:53;31.97;;;19.43;;
6947;SDS011;3513;47.664;9.162;2023-02-28T15:05:27;27.83;;;17.83;;
6947;SDS011;3513;47.664;9.162;2023-02-28T15:08:14;32.37;;;17.07;;
6947;SDS011;3513;47.664;9.162;2023-02-28T15:10:45;24.27;;;18.10;;
6947;SDS011;3513;47.664;9.162;2023-02-28T15:13:22;33.80;;;20.17;;
6947;SDS011;3513;47.664;9.162;2023-02-28T15:15:59;31.90;;;18.33;;
6947;SDS011;3513;47.664;9.162;2023-02-28T15:18:49;25.07;;;16.50;;
6947;SDS011;3513;47.664;9.162;2023-02-28T15:21:32;31.60;;;19.80;;
6947;SDS011;3513;47.664;9.162;2023-02-28T15:24:17;27.53;;;16.97;;
6947;SDS011;3513;47.664;9.162;2023-02-28T15:26:58;29.30;;;17.57;;
6947;SDS011;3513;47.664;9.162;2023-02-28T15:29:28;27.57;;;18.57;;
6947;SDS011;3513;47.664;9.162;2023-02-28T15:32:00;24.40;;;16.47;;
6947;SDS011;3513;47.664;9.162;2023-02-28T15:34:43;40.10;;;19.70;;
6947;SDS011;3513;47.664;9.162;2023-02-28T15:37:26;30.53;;;19.10;;
6947;SDS011;3513;47.664;9.162;2023-02-28T15:39:56;27.23;;;19.33;;
6947;SDS011;3513;47.664;9.162;2023-02-28T15:42:26;29.03;;;18.43;;
6947;SDS011;3513;47.664;9.162;2023-02-28T15:44:54;27.93;;;16.40;;
6947;SDS011;3513;47.664;9.162;2023-02-28T15:47:20;26.57;;;16.17;;
6947;SDS011;3513;47.664;9.162;2023-02-28T15:49:55;31.87;;;18.27;;
6947;SDS011;3513;47.664;9.162;2023-02-28T15:52:34;26.63;;;17.50;;
6947;SDS011;3513;47.664;9.162;2023-02-28T15:55:11;31.10;;;16.00;;
6947;SDS011;3513;47.664;9.162;2023-02-28T15:57:44;26.43;;;17.30;;
6947;SDS011;3513;47.664;9.162;2023-02-28T16:00:14;20.73;;;15.87;;
6947;SDS011;3513;47.664;9.162;2023-02-28T16:02:41;25.50;;;17.00;;
6947;SDS011;3513;47.664;9.162;2023-02-28T16:07:33;20.87;;;14.87;;
6947;SDS011;3513;47.664;9.162;2023-02-28T16:09:59;24.07;;;17.33;;
6947;SDS011;3513;47.664;9.162;2023-02-28T16:12:27;23.60;;;16.10;;
6947;SDS011;3513;47.664;9.162;2023-02-28T16:14:54;27.03;;;16.47;;
6947;SDS011;3513;47.664;9.162;2023-02-28T16:17:27;27.50;;;16.43;;
6947;SDS011;3513;47.664;9.162;2023-02-28T16:19:55;28.30;;;16.17;;
6947;SDS011;3513;47.664;9.162;2023-02-28T16:22:20;32.93;;;17.30;;
6947;SDS011;3513;47.664;9.162;2023-02-28T16:24:46;23.57;;;16.33;;
6947;SDS011;3513;47.664;9.162;2023-02-28T16:27:17;22.90;;;14.50;;
6947;SDS011;3513;47.664;9.162;2023-02-28T16:29:56;22.90;;;15.47;;
6947;SDS011;3513;47.664;9.162;2023-02-28T16:32:21;26.17;;;16.77;;
6947;SDS011;3513;47.664;9.162;2023-02-28T16:34:47;26.67;;;17.03;;
6947;SDS011;3513;47.664;9.162;2023-02-28T16:37:14;26.07;;;16.53;;
6947;SDS011;3513;47.664;9.162;2023-02-28T16:39:42;30.23;;;16.77;;
6947;SDS011;3513;47.664;9.162;2023-02-28T16:42:22;25.33;;;16.47;;
6947;SDS011;3513;47.664;9.162;2023-02-28T16:44:51;31.00;;;17.57;;
6947;SDS011;3513;47.664;9.162;2023-02-28T16:47:17;25.80;;;17.40;;
6947;SDS011;3513;47.664;9.162;2023-02-28T16:49:43;26.73;;;17.20;;
6947;SDS011;3513;47.664;9.162;2023-02-28T16:52:09;26.27;;;17.70;;
6947;SDS011;3513;47.664;9.162;2023-02-28T16:54:36;26.77;;;18.07;;
6947;SDS011;3513;47.664;9.162;2023-02-28T16:57:02;35.83;;;17.33;;
6947;SDS011;3513;47.664;9.162;2023-02-28T16:59:29;28.93;;;17.80;;
6947;SDS011;3513;47.664;9.162;2023-02-28T17:01:55;26.47;;;17.43;;
6947;SDS011;3513;47.664;9.162;2023-02-28T17:04:25;40.87;;;18.50;;
6947;SDS011;3513;47.664;9.162;2023-02-28T17:06:50;32.63;;;18.20;;
6947;SDS011;3513;47.664;9.162;2023-02-28T17:09:18;32.07;;;17.90;;
6947;SDS011;3513;47.664;9.162;2023-02-28T17:11:47;38.87;;;19.93;;
6947;SDS011;3513;47.664;9.162;2023-02-28T17:14:14;38.03;;;18.70;;
6947;SDS011;3513;47.664;9.162;2023-02-28T17:16:40;33.57;;;19.80;;
6947;SDS011;3513;47.664;9.162;2023-02-28T17:19:09;38.03;;;20.07;;
6947;SDS011;3513;47.664;9.162;2023-02-28T17:21:38;36.90;;;22.40;;
6947;SDS011;3513;47.664;9.162;2023-02-28T17:24:06;32.13;;;18.80;;